Portada
METAR-TAF:

METAR-TAF

Aeropuertos :

Aurora, Illinois, Estados Unidos

latitud: 41-46-12N, longitud: 088-28-53W, altitud: 215 m

Observación

El informe se hizo hace 1 hora y 12 minutos, a las 19:52 UTC
Viento 10 kt del sur-suroeste con ráfagas de 22 kt
Temperatura 33°C
Humedad 44%
Presión 1022 hPa
Visibilidad: 14.5 km
Escasas nubes a una altura de 6000 ft
Escasas nubes a una altura de 8000 ft

METAR: KARR 191952Z 20010G22KT 9SM FEW060 FEW080 33/19 A3018 RMK AO2 SLP214 T03280189

Hora: 16:04 (21:04 UTC)


TAF: falta

Observaciones y pronósticos meteorológicos de más de 4000 aeropuertos (mensajes METAR y TAF).

Los puntos amarillos y rojos representan las estaciones disponibles.

Ponga el ratón en el punto deseado para ver el nombre de la estación.

Haga clic para ver las observaciones y los pronósticos meteorológicos.

Para cambiar el mapa : haga clic en los botones verdes con una cruz de color negro para hacer un zoom, en el botón verde con un guión para alejar o en las flechas verdes para mapas adyacentes.


METAR-TAF: